createdAt,value
2022-08-19T00:02:11.423Z,0.50
2022-08-19T00:05:53.321Z,0.40
2022-08-19T00:09:54.695Z,0.22
2022-08-19T00:13:39.586Z,0.20
2022-08-19T00:17:21.579Z,0.27
2022-08-19T00:21:24.686Z,0.30
2022-08-19T00:25:07.318Z,0.30
2022-08-19T00:28:51.588Z,0.30
2022-08-19T00:32:35.334Z,0.30
2022-08-19T00:36:17.254Z,0.20
2022-08-19T00:40:20.293Z,0.20
2022-08-19T00:44:13.781Z,0.30
2022-08-19T00:47:55.545Z,0.30
2022-08-19T00:52:01.305Z,0.20
2022-08-19T00:55:43.834Z,0.20
2022-08-19T01:00:00.724Z,0.30
2022-08-19T01:03:57.660Z,0.28
2022-08-19T01:07:37.880Z,0.30
2022-08-19T01:12:17.040Z,0.20
2022-08-19T01:16:04.625Z,0.20
2022-08-19T01:19:48.752Z,0.10
2022-08-19T01:23:43.675Z,0.35
2022-08-19T01:27:25.503Z,0.20
2022-08-19T01:31:09.415Z,0.28
2022-08-19T01:34:51.193Z,0.20
2022-08-19T01:38:44.174Z,0.40
2022-08-19T01:42:30.307Z,0.35
2022-08-19T01:46:12.575Z,0.30
2022-08-19T01:49:56.593Z,0.35
2022-08-19T01:53:38.968Z,0.30
2022-08-19T01:57:20.973Z,0.30
2022-08-19T02:01:05.196Z,0.20
2022-08-19T02:04:47.017Z,0.30
2022-08-19T02:08:50.068Z,0.30
2022-08-19T02:12:33.554Z,0.47
2022-08-19T02:16:15.575Z,0.57
2022-08-19T02:20:17.089Z,0.20
2022-08-19T02:23:58.901Z,0.52
2022-08-19T02:27:40.985Z,0.50
2022-08-19T02:31:25.740Z,0.50
2022-08-19T02:35:12.306Z,0.40
2022-08-19T02:38:57.041Z,0.60
2022-08-19T02:42:38.819Z,0.60
2022-08-19T02:46:25.761Z,0.50
2022-08-19T02:50:28.764Z,0.60
2022-08-19T02:54:11.178Z,1.13
2022-08-19T02:57:52.998Z,0.63
2022-08-19T03:01:54.830Z,0.70
2022-08-19T03:05:48.360Z,0.82
2022-08-19T03:09:42.964Z,0.80
2022-08-19T03:13:25.066Z,0.73
2022-08-19T03:17:06.861Z,0.85
2022-08-19T03:21:12.497Z,1.10
2022-08-19T03:24:54.676Z,1.02
2022-08-19T03:28:37.262Z,1.00
2022-08-19T03:32:32.520Z,0.90
2022-08-19T03:36:17.310Z,1.02
2022-08-19T03:40:00.479Z,1.20
2022-08-19T03:43:42.770Z,1.25
2022-08-19T03:47:24.534Z,1.17
2022-08-19T03:51:08.022Z,1.33
2022-08-19T03:58:54.464Z,1.58
2022-08-19T04:02:36.303Z,1.23
2022-08-19T04:06:22.055Z,1.77
2022-08-19T04:10:06.194Z,1.55
2022-08-19T04:13:52.282Z,1.63
2022-08-19T04:17:34.311Z,1.70
2022-08-19T04:21:35.058Z,1.67
2022-08-19T04:25:17.262Z,2.20
2022-08-19T04:29:01.556Z,2.35
2022-08-19T04:32:44.702Z,1.83
2022-08-19T04:36:28.263Z,2.08
2022-08-19T04:44:10.638Z,2.33
2022-08-19T04:47:59.013Z,2.25
2022-08-19T04:51:58.879Z,2.42
2022-08-19T04:55:42.249Z,2.20
2022-08-19T04:59:25.294Z,2.03
2022-08-19T05:03:07.711Z,2.95
2022-08-19T05:06:49.809Z,2.78
2022-08-19T05:10:37.067Z,2.15
2022-08-19T05:14:20.700Z,2.97
2022-08-19T05:18:22.757Z,2.30
2022-08-19T05:22:22.839Z,2.42
2022-08-19T05:26:05.234Z,2.33
2022-08-19T05:29:48.332Z,2.75
2022-08-19T05:33:30.123Z,2.45
2022-08-19T05:37:11.974Z,2.75
2022-08-19T05:40:54.939Z,2.60
2022-08-19T05:44:40.358Z,3.05
2022-08-19T05:48:22.138Z,3.10
2022-08-19T05:52:05.625Z,2.88
2022-08-19T05:55:47.431Z,2.55
2022-08-19T05:59:53.159Z,2.70
2022-08-19T06:03:40.615Z,2.85
2022-08-19T06:07:22.478Z,3.27
2022-08-19T06:11:18.411Z,2.58
2022-08-19T06:15:05.122Z,2.67
2022-08-19T06:18:52.841Z,2.75
2022-08-19T06:22:39.319Z,2.50
2022-08-19T06:26:21.187Z,3.67
2022-08-19T06:30:05.941Z,2.70
2022-08-19T06:33:48.002Z,3.05
2022-08-19T06:37:32.003Z,2.58
2022-08-19T06:41:15.031Z,2.33
2022-08-19T06:44:56.907Z,2.85
2022-08-19T06:48:45.194Z,2.80
2022-08-19T06:52:27.748Z,2.88
2022-08-19T06:56:10.349Z,2.60
2022-08-19T06:59:53.406Z,2.45
2022-08-19T07:03:35.996Z,2.28
2022-08-19T07:07:21.423Z,2.60
2022-08-19T07:11:10.789Z,2.50
2022-08-19T07:14:53.722Z,2.25
2022-08-19T07:18:37.587Z,2.50
2022-08-19T07:22:21.550Z,2.47
2022-08-19T07:26:29.699Z,1.90
2022-08-19T07:30:14.827Z,2.33
2022-08-19T07:33:57.874Z,2.90
2022-08-19T07:37:45.024Z,2.03
2022-08-19T07:41:29.475Z,2.28
2022-08-19T07:45:13.834Z,2.50
2022-08-19T07:48:56.859Z,1.80
2022-08-19T07:52:40.581Z,2.25
2022-08-19T07:56:22.614Z,2.03
2022-08-19T08:00:24.368Z,2.08
2022-08-19T08:04:25.910Z,2.58
2022-08-19T08:08:27.499Z,1.70
2022-08-19T08:12:33.215Z,2.03
2022-08-19T08:16:16.249Z,2.03
2022-08-19T08:20:16.921Z,2.05
2022-08-19T08:27:46.938Z,1.83
2022-08-19T08:31:30.161Z,2.38
2022-08-19T08:35:13.934Z,1.75
2022-08-19T08:42:41.962Z,1.85
2022-08-19T08:46:31.550Z,2.08
2022-08-19T08:50:23.656Z,1.60
2022-08-19T08:54:11.029Z,2.40
2022-08-19T08:58:00.247Z,2.40
2022-08-19T09:01:43.405Z,2.22
2022-08-19T09:05:49.189Z,1.90
2022-08-19T09:09:53.599Z,2.28
2022-08-19T09:13:59.693Z,2.20
2022-08-19T09:17:41.693Z,1.98
2022-08-19T09:21:26.002Z,2.35
2022-08-19T09:25:17.622Z,2.00
2022-08-19T09:29:07.811Z,2.00
2022-08-19T09:36:36.885Z,2.05
2022-08-19T09:40:21.188Z,1.90
2022-08-19T09:44:06.622Z,2.17
2022-08-19T09:47:49.946Z,1.85
2022-08-19T09:52:09.630Z,2.40
2022-08-19T09:55:56.405Z,2.03
2022-08-19T09:59:58.231Z,2.00
2022-08-19T10:03:39.997Z,2.33
2022-08-19T10:07:22.863Z,2.00
2022-08-19T10:11:36.398Z,1.77
2022-08-19T10:15:28.976Z,1.90
2022-08-19T10:19:36.832Z,1.90
2022-08-19T10:23:19.213Z,1.92
2022-08-19T10:27:04.471Z,2.58
2022-08-19T10:30:46.418Z,1.98
2022-08-19T10:34:28.685Z,2.47
2022-08-19T10:38:10.494Z,2.38
2022-08-19T10:41:53.706Z,2.80
2022-08-19T10:45:35.746Z,2.33
2022-08-19T10:50:13.917Z,2.53
2022-08-19T10:53:56.577Z,1.98
2022-08-19T10:58:04.114Z,2.28
2022-08-19T11:01:44.120Z,2.35
2022-08-19T11:05:25.959Z,2.50
2022-08-19T11:09:09.127Z,2.80
2022-08-19T11:12:55.140Z,2.47
2022-08-19T11:16:37.696Z,2.63
2022-08-19T11:20:39.434Z,2.83
2022-08-19T11:24:23.438Z,2.03
2022-08-19T11:28:06.031Z,1.77
2022-08-19T11:32:08.378Z,1.70
2022-08-19T11:35:50.432Z,1.27
2022-08-19T11:39:33.867Z,2.00
2022-08-19T11:43:15.690Z,1.77
2022-08-19T11:46:57.617Z,1.73
2022-08-19T11:50:47.441Z,2.00
2022-08-19T11:54:29.527Z,1.63
2022-08-19T11:58:19.200Z,1.90
2022-08-19T12:02:01.206Z,1.77
2022-08-19T12:05:43.190Z,1.65
2022-08-19T12:09:27.205Z,2.50
2022-08-19T12:13:14.786Z,1.90
2022-08-19T12:16:56.548Z,1.88
2022-08-19T12:21:01.433Z,1.70
2022-08-19T12:24:43.643Z,1.83
2022-08-19T12:28:25.797Z,2.22
2022-08-19T12:32:10.443Z,1.60
2022-08-19T12:35:54.237Z,1.50
2022-08-19T12:39:55.204Z,2.38
2022-08-19T12:43:37.518Z,1.90
2022-08-19T12:47:19.610Z,1.73
2022-08-19T12:51:02.928Z,2.33
2022-08-19T12:58:31.785Z,1.85
2022-08-19T13:02:13.641Z,2.47
2022-08-19T13:05:55.402Z,2.13
2022-08-19T13:09:38.463Z,1.65
2022-08-19T13:13:20.266Z,1.70
2022-08-19T13:17:02.094Z,2.20
2022-08-19T13:21:05.370Z,2.22
2022-08-19T13:24:47.641Z,2.35
2022-08-19T13:28:49.610Z,2.05
2022-08-19T13:32:50.350Z,2.42
2022-08-19T13:36:35.038Z,2.22
2022-08-19T13:40:19.975Z,1.95
2022-08-19T13:44:02.785Z,2.35
2022-08-19T13:47:49.641Z,2.22
2022-08-19T13:51:36.753Z,2.35
2022-08-19T13:55:24.801Z,2.47
2022-08-19T13:59:27.961Z,2.80
2022-08-19T14:03:09.751Z,2.37
2022-08-19T14:06:51.542Z,4.55
2022-08-19T14:10:34.217Z,2.35
2022-08-19T14:14:16.612Z,2.20
2022-08-19T14:17:58.487Z,2.13
2022-08-19T14:22:01.205Z,2.50
2022-08-19T14:25:43.103Z,2.10
2022-08-19T14:29:25.123Z,2.58
2022-08-19T14:33:08.099Z,2.22
2022-08-19T14:36:49.934Z,1.60
2022-08-19T14:40:34.277Z,1.95
2022-08-19T14:44:16.062Z,1.85
2022-08-19T14:47:57.834Z,2.13
2022-08-19T14:51:59.597Z,2.13
2022-08-19T14:55:45.433Z,1.80
2022-08-19T14:59:46.041Z,1.40
2022-08-19T15:03:28.602Z,1.77
2022-08-19T15:07:10.440Z,2.08
2022-08-19T15:10:53.047Z,1.30
2022-08-19T15:14:38.172Z,1.50
2022-08-19T15:18:21.335Z,1.58
2022-08-19T15:22:03.225Z,1.60
2022-08-19T15:25:45.066Z,1.77
2022-08-19T15:29:28.491Z,1.87
2022-08-19T15:33:11.229Z,1.00
2022-08-19T15:36:53.785Z,1.10
2022-08-19T15:40:35.843Z,1.20
2022-08-19T15:44:18.557Z,1.00
2022-08-19T15:48:01.143Z,0.82
2022-08-19T15:51:46.134Z,0.90
2022-08-19T15:55:33.401Z,0.90
2022-08-19T15:59:56.839Z,1.13
2022-08-19T16:04:01.126Z,0.90
2022-08-19T16:07:43.112Z,1.17
2022-08-19T16:11:29.631Z,0.93
2022-08-19T16:15:11.897Z,1.17
2022-08-19T16:18:56.817Z,1.38
2022-08-19T16:22:39.786Z,1.40
2022-08-19T16:26:21.554Z,1.00
2022-08-19T16:30:04.114Z,1.08
2022-08-19T16:33:45.878Z,1.05
2022-08-19T16:37:27.903Z,1.10
2022-08-19T16:48:53.982Z,1.17
2022-08-19T16:52:36.945Z,1.65
2022-08-19T16:56:19.647Z,1.25
2022-08-19T17:00:08.700Z,1.25
2022-08-19T17:03:52.133Z,1.20
2022-08-19T17:07:34.002Z,1.45
2022-08-19T17:11:18.609Z,1.00
2022-08-19T17:15:02.164Z,1.20
2022-08-19T17:18:44.221Z,1.00
2022-08-19T17:22:26.110Z,0.93
2022-08-19T17:26:07.833Z,1.13
2022-08-19T17:29:55.894Z,0.80
2022-08-19T17:33:41.150Z,0.60
2022-08-19T17:37:23.321Z,0.88
2022-08-19T17:44:50.854Z,0.90
2022-08-19T17:49:10.648Z,1.08
2022-08-19T17:52:52.453Z,0.90
2022-08-19T17:56:34.266Z,0.98
2022-08-19T18:00:16.670Z,1.30
2022-08-19T18:04:00.064Z,1.08
2022-08-19T18:07:44.601Z,1.10
2022-08-19T18:11:26.633Z,1.42
2022-08-19T18:15:09.122Z,1.70
2022-08-19T18:19:09.885Z,1.40
2022-08-19T18:22:57.145Z,1.23
2022-08-19T18:26:39.713Z,1.38
2022-08-19T18:30:22.342Z,1.30
2022-08-19T18:34:04.731Z,1.60
2022-08-19T18:37:46.548Z,1.20
2022-08-19T18:41:49.856Z,1.60
2022-08-19T18:45:50.370Z,1.20
2022-08-19T18:49:34.790Z,1.02
2022-08-19T18:53:16.758Z,1.13
2022-08-19T18:56:58.720Z,1.60
2022-08-19T19:00:41.895Z,1.38
2022-08-19T19:04:32.334Z,0.98
2022-08-19T19:08:16.313Z,2.10
2022-08-19T19:12:38.786Z,1.25
2022-08-19T19:16:24.495Z,1.38
2022-08-19T19:20:07.186Z,1.20
2022-08-19T19:23:49.141Z,1.80
2022-08-19T19:27:30.949Z,1.70
2022-08-19T19:31:20.949Z,1.48
2022-08-19T19:35:02.779Z,1.67
2022-08-19T19:38:48.595Z,1.20
2022-08-19T19:42:30.742Z,1.45
2022-08-19T19:46:13.827Z,1.15
2022-08-19T19:50:14.700Z,1.10
2022-08-19T19:53:57.233Z,1.45
2022-08-19T19:57:39.683Z,0.90
2022-08-19T20:01:27.098Z,1.30
2022-08-19T20:05:09.518Z,1.30
2022-08-19T20:09:08.092Z,1.13
2022-08-19T20:12:52.010Z,1.40
2022-08-19T20:16:33.871Z,1.48
2022-08-19T20:20:19.391Z,1.70
2022-08-19T20:24:09.057Z,1.25
2022-08-19T20:27:51.593Z,1.73
2022-08-19T20:31:37.911Z,1.67
2022-08-19T20:35:36.190Z,1.63
2022-08-19T20:39:37.179Z,2.03
2022-08-19T20:43:19.417Z,1.80
2022-08-19T20:47:03.800Z,1.52
2022-08-19T20:50:46.107Z,1.52
2022-08-19T20:54:28.044Z,1.75
2022-08-19T20:58:10.121Z,1.38
2022-08-19T21:02:11.705Z,2.40
2022-08-19T21:05:53.866Z,1.98
2022-08-19T21:09:56.625Z,1.83
2022-08-19T21:13:39.134Z,1.23
2022-08-19T21:17:23.756Z,1.45
2022-08-19T21:21:24.550Z,1.38
2022-08-19T21:25:07.164Z,1.92
2022-08-19T21:28:50.491Z,1.90
2022-08-19T21:32:32.434Z,1.40
2022-08-19T21:36:15.998Z,1.75
2022-08-19T21:43:40.472Z,1.33
2022-08-19T21:47:22.498Z,1.63
2022-08-19T21:51:24.206Z,1.48
2022-08-19T21:55:06.864Z,1.65
2022-08-19T21:58:50.904Z,1.50
2022-08-19T22:02:32.708Z,1.77
2022-08-19T22:06:14.481Z,1.67
2022-08-19T22:09:58.463Z,1.58
2022-08-19T22:13:40.664Z,1.50
2022-08-19T22:17:22.956Z,1.50
2022-08-19T22:22:01.279Z,1.52
2022-08-19T22:25:46.578Z,1.90
2022-08-19T22:30:05.949Z,1.38
2022-08-19T22:33:52.230Z,1.40
2022-08-19T22:37:34.903Z,1.50
2022-08-19T22:42:13.274Z,1.00
2022-08-19T22:45:55.131Z,1.52
2022-08-19T22:49:37.139Z,1.42
2022-08-19T22:53:20.062Z,1.60
2022-08-19T22:57:01.957Z,1.70
2022-08-19T23:01:40.145Z,1.10
2022-08-19T23:05:23.074Z,1.25
2022-08-19T23:09:07.410Z,1.55
2022-08-19T23:12:50.684Z,1.83
2022-08-19T23:16:34.822Z,1.40
2022-08-19T23:20:18.912Z,1.90
2022-08-19T23:24:00.837Z,1.90
2022-08-19T23:28:01.918Z,1.77
2022-08-19T23:31:43.722Z,2.08
2022-08-19T23:35:25.794Z,2.15
2022-08-19T23:39:29.901Z,2.65
2022-08-19T23:46:59.262Z,2.03
2022-08-19T23:50:46.899Z,3.10
2022-08-19T23:54:43.758Z,2.10
2022-08-19T23:58:30.107Z,1.65
